Time;durP1;ratioP1;P1;durP2;ratioP2;P2;SDS_P1;SDS_P2;PMS_P1;PMS_P2;Temp;Humidity;BMP_temperature;BMP_pressure;BME280_temperature;BME280_humidity;BME280_pressure;Samples;Min_cycle;Max_cycle;Signal;HPM_P1;HPM_P2
2022/09/20 00:00:38;;;;;;;1.00;0.57;;;;;;;15.05;49.29;99373.50;4963982;28;20026;-88
2022/09/20 00:03:03;;;;;;;0.50;0.50;;;;;;;14.80;50.04;99360.38;4980177;28;20396;-88
2022/09/20 00:05:29;;;;;;;0.50;0.50;;;;;;;14.91;49.12;99365.31;4979503;28;20030;-88
2022/09/20 00:07:54;;;;;;;0.95;0.60;;;;;;;15.05;48.90;99378.13;4963631;28;20064;-88
2022/09/20 00:10:21;;;;;;;2.20;0.50;;;;;;;14.99;48.62;99369.25;4979802;28;20054;-88
2022/09/20 00:12:47;;;;;;;0.55;0.50;;;;;;;14.85;48.60;99360.28;4964067;28;20125;-87
2022/09/20 00:15:12;;;;;;;1.30;0.70;;;;;;;14.77;48.90;99366.38;4979606;28;20025;-88
2022/09/20 00:17:38;;;;;;;0.80;0.50;;;;;;;14.84;48.46;99362.19;4979532;28;20033;-88
2022/09/20 00:20:04;;;;;;;2.85;0.60;;;;;;;14.65;49.40;99359.53;4986664;28;20049;-87
2022/09/20 00:22:29;;;;;;;2.95;0.60;;;;;;;14.70;48.72;99362.16;4998981;28;20017;-88
2022/09/20 00:24:55;;;;;;;0.90;0.55;;;;;;;14.76;48.71;99376.44;5014601;28;20067;-87
2022/09/20 00:27:20;;;;;;;0.93;0.60;;;;;;;14.67;49.16;99379.03;4998916;28;20506;-87
2022/09/20 00:29:46;;;;;;;0.73;0.50;;;;;;;14.66;49.34;99371.97;5015143;28;20380;-88
2022/09/20 00:32:11;;;;;;;0.80;0.55;;;;;;;14.53;49.76;99357.25;4998611;28;20064;-88
2022/09/20 00:37:21;;;;;;;1.13;0.60;;;;;;;14.60;49.50;99351.47;5018572;28;20113;-87
2022/09/20 00:39:46;;;;;;;1.05;0.50;;;;;;;14.55;49.59;99354.25;5015519;28;20033;-88
2022/09/20 00:42:15;;;;;;;0.73;0.50;;;;;;;14.65;49.59;99370.38;5015639;28;20032;-87
2022/09/20 00:44:44;;;;;;;1.13;0.60;;;;;;;14.67;48.94;99365.47;4999235;28;20541;-88
2022/09/20 00:47:23;;;;;;;1.15;0.60;;;;;;;14.63;48.98;99369.03;5015989;28;20025;-88
2022/09/20 00:49:49;;;;;;;0.68;0.60;;;;;;;14.50;49.74;99381.41;4999862;28;20462;-87
2022/09/20 00:52:14;;;;;;;1.00;0.80;;;;;;;14.33;50.88;99357.56;4999934;28;20032;-88
2022/09/20 00:54:40;;;;;;;2.03;0.68;;;;;;;14.45;50.78;99368.75;4982888;28;20480;-88
2022/09/20 00:57:05;;;;;;;0.73;0.60;;;;;;;14.31;50.51;99355.13;4999111;28;20492;-87
2022/09/20 00:59:33;;;;;;;0.77;0.63;;;;;;;14.29;50.27;99348.41;4998946;28;20021;-89
2022/09/20 01:02:02;;;;;;;0.90;0.80;;;;;;;14.39;50.52;99369.91;4998860;28;20079;-88
2022/09/20 01:04:28;;;;;;;0.63;0.63;;;;;;;14.06;51.07;99369.03;5015456;28;20025;-88
2022/09/20 01:06:55;;;;;;;0.90;0.80;;;;;;;13.98;51.72;99367.78;4999603;28;20395;-87
2022/09/20 01:09:20;;;;;;;1.20;0.88;;;;;;;14.06;52.31;99390.69;4999453;28;20376;-87
2022/09/20 01:11:46;;;;;;;1.20;0.90;;;;;;;14.03;52.67;99383.97;5015869;28;20025;-88
2022/09/20 01:14:12;;;;;;;2.38;0.75;;;;;;;14.12;51.37;99381.41;4998974;28;20036;-88
2022/09/20 01:16:38;;;;;;;1.77;1.20;;;;;;;14.01;51.54;99361.78;4999449;28;20105;-87
2022/09/20 01:19:09;;;;;;;1.90;1.08;;;;;;;14.00;51.70;99368.28;5015157;28;20029;-88
2022/09/20 01:21:35;;;;;;;1.13;0.80;;;;;;;13.94;52.53;99367.56;4998518;28;20077;-88
2022/09/20 01:24:10;;;;;;;1.27;0.90;;;;;;;14.01;52.25;99377.22;5014503;28;20032;-87
2022/09/20 01:26:46;;;;;;;1.45;0.98;;;;;;;13.97;51.65;99362.69;5014815;28;20380;-87
2022/09/20 01:30:02;;;;;;;1.83;0.80;;;;;;;13.87;52.16;99355.47;5006094;28;20022;-87
2022/09/20 01:32:52;;;;;;;1.50;0.90;;;;;;;13.67;52.83;99359.25;4921770;29;20069;-87
2022/09/20 01:35:20;;;;;;;1.90;0.90;;;;;;;13.67;53.95;99357.34;5011654;28;20054;-87
2022/09/20 01:38:01;;;;;;;1.25;0.98;;;;;;;13.72;53.77;99372.72;4986225;28;20025;-87
2022/09/20 01:40:45;;;;;;;1.45;0.95;;;;;;;13.45;53.70;99348.97;4999418;28;20447;-87
2022/09/20 01:43:32;;;;;;;1.20;0.88;;;;;;;13.64;53.01;99370.66;4984596;28;20091;-87
2022/09/20 01:45:57;;;;;;;1.42;0.88;;;;;;;13.54;53.83;99364.25;5035939;28;20044;-87
2022/09/20 01:48:34;;;;;;;1.45;0.90;;;;;;;13.42;54.25;99363.03;5001857;28;20037;-87
2022/09/20 01:51:35;;;;;;;1.20;1.00;;;;;;;13.44;54.73;99386.00;5001425;28;20036;-87
2022/09/20 01:54:03;;;;;;;2.05;0.90;;;;;;;13.57;53.06;99389.91;5020746;28;20072;-87
2022/09/20 01:56:53;;;;;;;1.33;1.00;;;;;;;13.45;54.44;99394.94;5017892;28;20031;-87
2022/09/20 01:59:38;;;;;;;1.23;0.98;;;;;;;13.31;54.90;99392.09;5035440;28;20057;-88
2022/09/20 02:02:17;;;;;;;1.92;1.40;;;;;;;13.07;54.48;99371.22;5001451;28;20136;-88
2022/09/20 02:04:51;;;;;;;1.45;1.05;;;;;;;13.22;55.18;99404.59;5002373;28;20036;-88
2022/09/20 02:07:22;;;;;;;2.83;1.38;;;;;;;13.13;55.23;99394.38;5035424;28;20029;-88
2022/09/20 02:10:31;;;;;;;1.40;1.10;;;;;;;13.03;54.73;99399.91;5035610;28;20065;-88
2022/09/20 02:13:35;;;;;;;1.13;0.95;;;;;;;13.06;54.29;99393.13;5018008;28;20083;-88
2022/09/20 02:16:25;;;;;;;1.08;0.95;;;;;;;13.02;55.20;99405.59;4936474;29;20031;-88
2022/09/20 02:19:25;;;;;;;2.33;1.17;;;;;;;12.94;55.76;99396.19;4941931;29;20031;-87
2022/09/20 02:22:12;;;;;;;1.60;1.30;;;;;;;12.93;55.14;99405.41;5014715;28;20057;-88
2022/09/20 02:25:11;;;;;;;1.50;1.10;;;;;;;12.77;55.30;99371.50;5034824;28;20052;-87
2022/09/20 02:27:45;;;;;;;1.63;1.15;;;;;;;12.92;55.84;99391.06;5003591;28;20037;-89
2022/09/20 02:30:22;;;;;;;1.23;1.10;;;;;;;12.73;55.25;99377.44;5034726;28;20033;-88
2022/09/20 02:33:06;;;;;;;2.03;1.70;;;;;;;12.71;55.79;99405.84;5001851;28;20029;-88
2022/09/20 02:35:47;;;;;;;1.60;1.15;;;;;;;12.79;54.93;99396.31;5034837;28;20045;-88
2022/09/20 02:38:32;;;;;;;1.65;1.27;;;;;;;12.87;54.83;99404.63;5016488;28;20026;-88
2022/09/20 02:41:06;;;;;;;2.17;1.10;;;;;;;12.65;54.60;99398.84;4997493;28;20034;-88
2022/09/20 02:43:43;;;;;;;2.25;1.33;;;;;;;12.62;55.49;99394.81;5017975;28;20021;-88
2022/09/20 02:46:16;;;;;;;1.65;1.30;;;;;;;12.41;55.06;99385.22;5017773;28;20480;-88
2022/09/20 02:48:46;;;;;;;1.75;1.10;;;;;;;12.36;55.81;99379.88;4984845;28;20017;-88
2022/09/20 02:51:28;;;;;;;2.40;1.40;;;;;;;12.45;56.37;99394.38;5001516;28;20025;-87
2022/09/20 02:53:57;;;;;;;;;;;;;;;12.49;56.03;99401.69;4995228;28;20088;-87
2022/09/20 02:57:01;;;;;;;4.60;1.33;;;;;;;12.43;56.61;99404.66;4962100;28;19960;-87
2022/09/20 02:59:43;;;;;;;1.92;1.60;;;;;;;12.21;56.53;99373.50;4949315;28;20054;-87
2022/09/20 03:02:09;;;;;;;1.67;1.38;;;;;;;12.34;56.33;99394.44;4962291;28;20485;-87
2022/09/20 03:05:16;;;;;;;1.95;1.38;;;;;;;12.24;56.80;99383.75;5000543;28;20032;-88
2022/09/20 03:08:03;;;;;;;1.40;1.23;;;;;;;12.38;56.25;99389.31;4963114;28;20036;-89
2022/09/20 03:10:40;;;;;;;1.20;1.00;;;;;;;12.18;56.54;99373.22;5000353;28;20385;-89
2022/09/20 03:13:24;;;;;;;2.65;1.35;;;;;;;12.32;56.03;99393.91;5000847;28;20483;-88
2022/09/20 03:16:11;;;;;;;2.78;1.70;;;;;;;12.28;56.73;99392.06;5035545;28;20043;-89
2022/09/20 03:18:52;;;;;;;1.70;1.40;;;;;;;12.23;55.82;99376.72;5000042;28;20014;-88
2022/09/20 03:21:28;;;;;;;1.98;1.33;;;;;;;12.15;56.34;99368.41;4968411;28;20061;-88
2022/09/20 03:24:19;;;;;;;2.35;1.33;;;;;;;12.27;55.41;99393.97;4981599;28;20017;-89
2022/09/20 03:27:01;;;;;;;2.28;1.50;;;;;;;12.22;55.46;99369.72;4987170;28;20066;-88
2022/09/20 03:29:29;;;;;;;2.25;1.30;;;;;;;12.33;55.00;99390.16;4982481;28;20095;-88
2022/09/20 03:31:58;;;;;;;2.25;1.40;;;;;;;12.26;55.34;99386.94;4997307;28;20025;-87
2022/09/20 03:34:32;;;;;;;2.53;1.60;;;;;;;12.17;56.36;99385.13;4996666;28;20028;-90
2022/09/20 03:37:07;;;;;;;3.45;1.50;;;;;;;12.07;56.09;99392.19;5013935;28;20407;-90
2022/09/20 03:40:02;;;;;;;2.42;1.63;;;;;;;12.04;56.24;99392.75;4994982;28;20104;-90
2022/09/20 03:42:28;;;;;;;1.35;1.17;;;;;;;11.96;55.63;99385.22;4979645;28;20030;-90
2022/09/20 03:45:12;;;;;;;1.70;1.15;;;;;;;12.21;55.35;99400.47;4980739;28;20021;-89
2022/09/20 03:47:53;;;;;;;6.03;1.75;;;;;;;12.16;55.87;99410.50;4996290;28;20535;-88
2022/09/20 03:50:59;;;;;;;2.33;1.58;;;;;;;12.06;56.57;99419.47;5013881;28;20032;-88
2022/09/20 03:53:54;;;;;;;2.58;1.50;;;;;;;11.96;56.70;99417.59;4980225;28;20555;-89
2022/09/20 03:56:38;;;;;;;4.13;1.50;;;;;;;12.07;55.76;99432.66;5014069;28;20115;-88
2022/09/20 03:59:23;;;;;;;7.05;2.05;;;;;;;12.01;56.35;99428.38;5013172;28;20513;-88
2022/09/20 04:02:10;;;;;;;3.72;1.67;;;;;;;11.91;56.55;99431.94;5013155;28;20042;-89
2022/09/20 04:04:39;;;;;;;3.03;2.05;;;;;;;11.82;56.72;99430.03;5013987;28;20550;-89
2022/09/20 04:07:27;;;;;;;5.18;1.70;;;;;;;11.80;57.18;99433.00;4996254;28;20052;-89
2022/09/20 04:10:24;;;;;;;2.03;1.55;;;;;;;11.79;57.22;99442.19;4980178;28;20057;-92
2022/09/20 04:13:01;;;;;;;1.70;1.35;;;;;;;11.79;57.22;99442.19;4980489;28;20022;-89
2022/09/20 04:15:57;;;;;;;5.22;2.17;;;;;;;11.76;56.51;99431.94;5014972;28;20034;-89
2022/09/20 04:18:25;;;;;;;3.42;1.98;;;;;;;11.74;57.54;99447.59;4964950;28;20484;-90
2022/09/20 04:20:59;;;;;;;3.25;1.75;;;;;;;11.71;57.26;99427.38;5011895;28;20053;-94
2022/09/20 04:23:43;;;;;;;2.38;1.65;;;;;;;11.80;56.77;99438.41;5005271;28;20047;-94
2022/09/20 04:26:08;;;;;;;2.00;1.60;;;;;;;11.74;56.78;99420.63;5021361;28;20211;-92
2022/09/20 04:28:46;;;;;;;2.90;1.95;;;;;;;11.75;56.62;99421.44;4946326;28;20452;-92
2022/09/20 04:31:20;;;;;;;3.03;2.25;;;;;;;11.78;56.24;99418.97;4947575;28;20030;-93
2022/09/20 04:33:47;;;;;;;4.20;2.97;;;;;;;11.81;56.52;99431.13;4986241;28;20045;-96
2022/09/20 04:36:45;;;;;;;4.57;2.28;;;;;;;11.87;56.63;99446.19;4970307;28;20034;-94
2022/09/20 04:43:09;;;;;;;2.28;1.65;;;;;;;11.93;56.44;99454.06;4975735;28;20045;-93
2022/09/20 04:45:40;;;;;;;6.47;2.30;;;;;;;12.03;55.80;99453.19;4981937;28;20030;-95
2022/09/20 04:48:22;;;;;;;5.20;2.63;;;;;;;11.93;55.93;99421.66;4999733;28;20027;-94
2022/09/20 04:51:26;;;;;;;4.88;2.35;;;;;;;11.72;55.75;99412.00;4968064;28;20030;-93
2022/09/20 04:53:57;;;;;;;4.35;2.33;;;;;;;12.13;56.00;99452.34;4891624;29;20471;-96
2022/09/20 04:56:51;;;;;;;3.53;2.67;;;;;;;12.03;55.94;99415.41;4971489;28;20038;-95
2022/09/20 04:59:25;;;;;;;8.13;4.03;;;;;;;12.34;55.71;99459.25;4974188;28;20050;-96
2022/09/20 05:02:24;;;;;;;2.70;1.30;;;;;;;12.31;54.24;99459.81;4973946;28;20121;-95
2022/09/20 05:05:15;;;;;;;3.10;1.80;;;;;;;12.21;54.33;99457.16;4982849;28;20035;-96
2022/09/20 05:07:47;;;;;;;4.68;1.88;;;;;;;12.31;54.60;99467.13;5011474;28;20523;-93
2022/09/20 05:10:57;;;;;;;5.35;3.10;;;;;;;12.49;54.05;99468.38;4979515;28;20018;-95
2022/09/20 05:13:59;;;;;;;15.50;4.80;;;;;;;12.38;55.04;99453.31;4959172;29;20078;-92
2022/09/20 05:16:31;;;;;;;4.70;1.90;;;;;;;12.60;53.53;99469.13;4952703;28;20034;-95
2022/09/20 05:19:22;;;;;;;2.92;1.70;;;;;;;12.64;53.62;99473.69;4999074;28;20128;-96
2022/09/20 05:22:17;;;;;;;3.88;3.38;;;;;;;12.77;53.77;99466.06;4997490;28;20046;-96
2022/09/20 05:25:25;;;;;;;5.70;1.83;;;;;;;12.75;53.16;99447.41;4968222;28;20038;-95
2022/09/20 05:28:06;;;;;;;3.78;2.67;;;;;;;12.99;52.57;99450.22;4985443;28;20043;-96
2022/09/20 05:30:53;;;;;;;3.55;1.90;;;;;;;13.00;52.00;99451.03;4979905;28;20039;-96
2022/09/20 05:33:22;;;;;;;5.50;3.42;;;;;;;13.18;51.49;99441.38;4963145;28;20038;-95
2022/09/20 05:36:01;;;;;;;27.88;17.35;;;;;;;13.19;51.68;99434.91;4970443;28;20117;-96
2022/09/20 05:38:49;;;;;;;8.45;4.72;;;;;;;13.57;51.51;99470.28;5007503;28;20468;-96
2022/09/20 05:41:39;;;;;;;3.33;2.53;;;;;;;13.64;51.44;99485.09;4973614;28;20045;-93
2022/09/20 05:44:51;;;;;;;3.05;1.77;;;;;;;13.69;51.14;99486.94;4976231;28;20029;-96
2022/09/20 05:47:35;;;;;;;4.75;2.65;;;;;;;13.73;51.36;99477.94;4988734;28;20030;-96
2022/09/20 05:50:29;;;;;;;3.65;2.05;;;;;;;13.85;51.04;99493.00;4989858;28;20034;-96
2022/09/20 05:53:16;;;;;;;4.65;1.70;;;;;;;13.80;50.38;99491.16;4991896;28;20045;-96
2022/09/20 05:58:44;;;;;;;3.53;1.85;;;;;;;13.66;49.24;99463.16;5016438;28;20085;-96
2022/09/20 06:01:34;;;;;;;2.08;1.60;;;;;;;13.57;49.29;99467.56;5002480;28;20026;-96
2022/09/20 06:04:44;;;;;;;1.30;1.00;;;;;;;13.52;48.66;99468.44;4992419;28;20054;-90
2022/09/20 06:07:28;;;;;;;1.95;1.35;;;;;;;13.61;49.72;99496.47;4973865;28;20027;-93
2022/09/20 06:10:12;;;;;;;5.10;1.60;;;;;;;13.49;49.96;99450.88;4981040;28;20081;-88
2022/09/20 06:13:02;;;;;;;1.63;1.15;;;;;;;13.88;49.04;99498.66;4975967;28;20049;-91
2022/09/20 06:15:39;;;;;;;1.77;1.10;;;;;;;13.78;48.56;99490.66;4981467;28;20369;-90
2022/09/20 06:18:23;;;;;;;2.17;1.40;;;;;;;13.66;48.58;99463.16;5003157;28;20073;-93
2022/09/20 06:21:27;;;;;;;2.40;1.60;;;;;;;13.79;49.16;99461.66;4969923;28;20093;-94
2022/09/20 06:23:59;;;;;;;1.30;0.95;;;;;;;13.93;46.98;99460.69;5005435;28;20097;-91
2022/09/20 06:26:26;;;;;;;;;;;;;;;14.12;47.01;99493.22;4982977;28;20116;-91
2022/09/20 06:29:04;;;;;;;1.52;1.00;;;;;;;14.10;46.91;99464.84;4985453;28;19916;-92
2022/09/20 06:31:29;;;;;;;2.05;1.80;;;;;;;14.10;47.64;99476.47;5000139;28;20033;-93
2022/09/20 06:34:01;;;;;;;1.70;1.05;;;;;;;14.25;46.75;99480.09;4982135;28;20523;-91
2022/09/20 06:42:27;;;;;;;2.53;0.90;;;;;;;14.54;46.34;99459.09;5001827;28;20125;-93
2022/09/20 06:44:54;;;;;;;1.48;0.98;;;;;;;14.71;45.09;99463.22;4983170;28;20113;-96
2022/09/20 06:47:25;;;;;;;0.98;0.80;;;;;;;14.87;44.90;99480.88;5015450;28;20095;-96
2022/09/20 06:49:51;;;;;;;1.92;0.90;;;;;;;14.85;45.41;99468.72;4981605;28;20025;-96
2022/09/20 06:52:34;;;;;;;1.08;0.70;;;;;;;14.65;44.97;99448.13;4984990;28;20523;-95
2022/09/20 06:55:06;;;;;;;1.35;0.90;;;;;;;14.89;44.73;99461.63;5001017;28;20014;-96
2022/09/20 06:57:42;;;;;;;0.85;0.70;;;;;;;14.87;44.52;99480.09;5000211;28;20013;-94
2022/09/20 07:00:18;;;;;;;1.42;0.82;;;;;;;14.70;44.55;99453.50;4996579;28;20034;-95
2022/09/20 07:02:49;;;;;;;0.65;0.50;;;;;;;14.54;45.55;99458.28;4993272;28;20025;-95
2022/09/20 07:05:15;;;;;;;0.70;0.50;;;;;;;14.60;44.83;99459.06;4978666;28;20052;-96
2022/09/20 07:08:04;;;;;;;4.40;2.33;;;;;;;14.79;45.79;99469.91;4976642;28;20025;-95
2022/09/20 07:10:45;;;;;;;3.40;2.50;;;;;;;14.87;44.68;99450.25;4998986;28;20017;-95
2022/09/20 07:13:12;;;;;;;1.17;0.87;;;;;;;15.12;44.46;99490.53;4982268;28;20125;-95
2022/09/20 07:15:41;;;;;;;1.02;0.90;;;;;;;15.30;44.67;99483.47;4992111;28;20030;-96
2022/09/20 07:18:07;;;;;;;74.03;45.30;;;;;;;15.25;43.65;99459.16;5010865;28;20148;-94
2022/09/20 07:20:32;;;;;;;149.23;73.25;;;;;;;15.42;42.82;99488.44;5024341;28;20076;-96
2022/09/20 07:22:58;;;;;;;1.80;1.13;;;;;;;15.38;42.60;99459.44;5008921;28;20052;-94
2022/09/20 07:25:27;;;;;;;4.32;2.92;;;;;;;15.39;42.73;99461.88;5011629;28;20112;-96
2022/09/20 07:27:53;;;;;;;3.10;2.22;;;;;;;15.45;44.25;99468.03;4993141;28;20026;-95
2022/09/20 07:30:18;;;;;;;2.55;1.25;;;;;;;15.42;43.49;99479.47;5009537;28;20369;-93
2022/09/20 07:32:47;;;;;;;0.93;0.63;;;;;;;15.46;42.50;99497.59;5016949;28;20025;-96
2022/09/20 07:35:14;;;;;;;1.23;0.60;;;;;;;15.04;43.22;99463.28;5014092;28;20013;-96
2022/09/20 07:37:50;;;;;;;2.25;1.23;;;;;;;15.02;44.49;99479.84;4994591;28;20372;-94
2022/09/20 07:40:22;;;;;;;0.57;0.50;;;;;;;15.09;43.55;99490.31;4982306;28;20044;-95
2022/09/20 07:42:50;;;;;;;0.98;0.65;;;;;;;15.04;43.41;99484.97;4975390;28;20128;-87
2022/09/20 07:45:22;;;;;;;0.68;0.57;;;;;;;15.11;43.36;99447.44;5015520;28;20022;-93
2022/09/20 07:51:00;;;;;;;9.05;4.78;;;;;;;15.42;42.11;99441.47;5133801;23;20062;-96
2022/09/20 07:53:35;;;;;;;0.80;0.60;;;;;;;15.69;42.49;99476.00;4953919;28;20053;-95
2022/09/20 07:56:06;;;;;;;2.10;1.17;;;;;;;15.69;41.98;99470.59;4970905;28;20044;-94
2022/09/20 07:58:33;;;;;;;1.40;0.73;;;;;;;15.70;42.73;99447.75;4950439;28;20056;-92
2022/09/20 08:01:03;;;;;;;0.95;0.43;;;;;;;15.90;41.34;99465.59;4962889;28;20030;-93
2022/09/20 08:03:32;;;;;;;0.70;0.60;;;;;;;16.07;41.46;99478.56;4949950;28;20101;-94
2022/09/20 08:06:04;;;;;;;2.42;1.90;;;;;;;15.93;43.30;99473.94;4948344;28;20529;-93
2022/09/20 08:08:35;;;;;;;1.88;1.17;;;;;;;15.87;41.30;99458.03;4979067;28;20041;-94
2022/09/20 08:11:08;;;;;;;1.92;0.70;;;;;;;16.10;40.63;99448.06;4947052;28;20080;-93
2022/09/20 08:14:08;;;;;;;2.35;0.93;;;;;;;16.25;40.69;99468.69;4950286;28;20197;-95
2022/09/20 08:16:47;;;;;;;1.30;0.80;;;;;;;16.33;40.76;99479.66;4980655;28;20038;-94
2022/09/20 08:19:20;;;;;;;0.88;0.60;;;;;;;16.21;40.97;99473.13;4981573;28;20034;-94
2022/09/20 08:21:55;;;;;;;0.88;0.50;;;;;;;16.14;41.10;99454.50;4970578;28;20046;-96
2022/09/20 08:24:20;;;;;;;0.77;0.60;;;;;;;16.39;40.58;99463.25;4965974;28;20408;-94
2022/09/20 08:27:05;;;;;;;;;;;;;;;;;;;;;
2022/09/20 08:29:37;;;;;;;4.57;1.60;;;;;;;16.39;40.62;99445.00;4982951;28;20109;-95
2022/09/20 08:32:05;;;;;;;0.52;0.50;;;;;;;16.52;40.14;99452.34;4980153;28;20026;-95
2022/09/20 08:34:31;;;;;;;1.05;0.80;;;;;;;16.61;40.42;99471.44;4967244;28;20384;-95
2022/09/20 08:36:58;;;;;;;0.45;0.45;;;;;;;16.48;39.60;99445.91;4980139;28;20046;-94
2022/09/20 08:39:25;;;;;;;0.52;0.50;;;;;;;16.44;40.04;99444.13;4997915;28;20417;-96
2022/09/20 08:45:20;;;;;;;1.45;0.88;;;;;;;16.60;40.47;99458.97;4962212;28;20094;-94
2022/09/20 08:47:52;;;;;;;1.20;0.50;;;;;;;16.83;39.38;99456.28;4978298;28;20026;-96
2022/09/20 08:50:20;;;;;;;2.78;1.52;;;;;;;16.71;40.17;99427.72;4962655;28;20054;-94
2022/09/20 08:52:52;;;;;;;3.22;1.00;;;;;;;16.77;39.30;99426.47;4980775;28;20045;-95
2022/09/20 08:55:23;;;;;;;1.00;0.88;;;;;;;16.93;39.55;99439.75;4981830;28;20034;-94
2022/09/20 08:58:06;;;;;;;1.13;0.80;;;;;;;17.15;38.19;99455.25;4983712;28;20034;-95
2022/09/20 09:00:32;;;;;;;2.15;0.70;;;;;;;16.93;38.54;99424.25;4969729;28;20285;-96
2022/09/20 09:27:29;;;;;;;0.68;0.50;;;;;;;16.86;38.91;99384.97;4833620;29;20045;-95
2022/09/20 09:29:55;;;;;;;1.10;0.50;;;;;;;17.02;37.83;99416.13;4825017;29;20040;-95
2022/09/20 09:32:29;;;;;;;0.57;0.40;;;;;;;16.86;37.34;99404.03;4963822;28;20104;-95
2022/09/20 09:35:29;;;;;;;1.88;0.47;;;;;;;16.77;38.69;99415.59;4980443;28;20510;-94
2022/09/20 09:38:05;;;;;;;1.10;0.60;;;;;;;16.80;38.89;99406.03;4994879;28;20030;-94
2022/09/20 09:41:02;;;;;;;0.55;0.50;;;;;;;16.95;39.42;99388.56;4996902;28;20122;-96
2022/09/20 09:43:34;;;;;;;0.70;0.57;;;;;;;17.14;38.49;99405.50;4952940;28;20042;-94
2022/09/20 09:46:20;;;;;;;0.40;0.40;;;;;;;17.33;37.75;99420.81;4961685;28;20034;-90
2022/09/20 09:48:48;;;;;;;2.53;0.50;;;;;;;17.33;37.28;99408.00;4992821;28;20034;-91
2022/09/20 09:51:22;;;;;;;0.85;0.50;;;;;;;17.24;37.57;99400.88;4977135;28;20374;-96
2022/09/20 09:53:49;;;;;;;0.85;0.40;;;;;;;17.15;37.72;99384.53;4967522;28;20046;-96
2022/09/20 09:57:12;;;;;;;;;;;;;;;;;;;;;
2022/09/20 09:59:49;;;;;;;0.85;0.50;;;;;;;17.70;37.80;99408.63;5006199;28;20091;-93
2022/09/20 10:02:37;;;;;;;2.65;1.55;;;;;;;17.74;38.68;99415.06;5004576;28;20096;-96
2022/09/20 10:05:11;;;;;;;0.80;0.50;;;;;;;17.66;37.38;99404.09;4991674;28;20034;-96
2022/09/20 10:07:48;;;;;;;2.92;0.55;;;;;;;17.56;37.22;99403.28;5010101;28;20029;-96
2022/09/20 10:10:25;;;;;;;1.00;0.68;;;;;;;17.62;37.35;99411.31;4977393;28;20018;-96
2022/09/20 10:13:10;;;;;;;1.50;0.50;;;;;;;17.45;37.68;99399.25;5007554;28;20485;-95
2022/09/20 10:15:49;;;;;;;2.47;0.80;;;;;;;17.37;38.94;99419.84;5001092;28;20109;-94
2022/09/20 10:18:36;;;;;;;1.02;0.50;;;;;;;17.57;37.70;99415.78;5007527;28;20029;-96
2022/09/20 10:21:22;;;;;;;1.48;1.02;;;;;;;17.80;38.83;99417.63;5014883;28;20164;-96
2022/09/20 10:24:13;;;;;;;33.10;20.42;;;;;;;17.84;37.51;99413.19;5012361;28;20026;-94
2022/09/20 10:32:30;;;;;;;6.95;5.50;;;;;;;17.65;37.74;99389.69;5076678;23;20050;-95
2022/09/20 10:35:29;;;;;;;0.60;0.60;;;;;;;17.88;37.66;99406.78;4993232;28;20350;-96
2022/09/20 10:38:07;;;;;;;0.60;0.52;;;;;;;17.90;37.26;99412.72;5001483;28;20109;-94
2022/09/20 10:44:35;;;;;;;8.18;2.50;;;;;;;17.90;37.74;99387.41;4997146;28;20025;-93
2022/09/20 10:47:13;;;;;;;0.75;0.60;;;;;;;18.04;37.44;99404.44;4979526;28;20129;-94
2022/09/20 10:50:04;;;;;;;0.40;0.40;;;;;;;17.80;37.05;99368.59;4974022;28;20022;-90
2022/09/20 10:52:42;;;;;;;1.02;0.60;;;;;;;17.72;35.73;99362.84;4976421;28;20039;-90
2022/09/20 10:55:39;;;;;;;1.35;0.73;;;;;;;17.66;36.50;99374.16;4977577;28;20026;-92
2022/09/20 10:58:32;;;;;;;1.63;0.77;;;;;;;17.82;37.50;99396.31;4950298;28;20034;-91
2022/09/20 11:01:10;;;;;;;0.60;0.40;;;;;;;18.08;36.38;99386.31;4958884;28;20120;-91
2022/09/20 11:04:26;;;;;;;1.73;0.90;;;;;;;18.21;37.31;99373.69;4960250;28;20046;-92
2022/09/20 11:07:38;;;;;;;;;;;;;;;;;;;;;
2022/09/20 11:10:40;;;;;;;2.80;0.50;;;;;;;18.23;37.02;99352.34;4990323;28;20167;-90
2022/09/20 11:13:30;;;;;;;1.50;0.70;;;;;;;18.40;36.80;99387.00;4993716;28;20045;-94
2022/09/20 11:16:35;;;;;;;;;;;;;;;;;;;;;
2022/09/20 11:19:40;;;;;;;0.80;0.50;;;;;;;18.35;35.74;99384.44;5005959;28;20040;-94
2022/09/20 11:22:18;;;;;;;0.35;0.35;;;;;;;18.12;35.29;99349.16;5016727;28;20514;-92
2022/09/20 11:24:48;;;;;;;1.05;0.70;;;;;;;18.05;35.72;99350.72;4979320;28;20029;-92
2022/09/20 11:27:36;;;;;;;0.70;0.65;;;;;;;18.19;35.67;99348.66;4999426;28;20029;-93
2022/09/20 11:30:18;;;;;;;0.65;0.47;;;;;;;18.34;34.84;99310.03;4943544;28;20019;-93
2022/09/20 11:32:58;;;;;;;1.27;0.75;;;;;;;18.51;35.98;99317.41;4940942;29;20087;-94
2022/09/20 11:35:47;;;;;;;1.58;0.90;;;;;;;18.85;35.10;99336.78;4944791;29;20102;-91
2022/09/20 11:39:00;;;;;;;;;;;;;;;;;;;;;
2022/09/20 11:44:37;;;;;;;2.42;0.38;;;;;;;18.87;33.95;99350.91;4868810;29;20116;-93
2022/09/20 11:47:24;;;;;;;1.45;0.70;;;;;;;18.70;34.48;99325.22;4890588;29;20046;-96
2022/09/20 11:50:03;;;;;;;0.55;0.40;;;;;;;18.82;34.42;99327.31;4903273;28;20068;-94
2022/09/20 11:53:16;;;;;;;0.70;0.50;;;;;;;18.68;34.90;99349.28;4932497;28;20031;-93
2022/09/20 11:55:57;;;;;;;2.17;0.65;;;;;;;18.57;34.61;99332.47;4921932;29;20044;-94
2022/09/20 12:05:34;;;;;;;0.85;0.45;;;;;;;18.86;33.78;99341.09;4908826;29;20074;-94
2022/09/20 12:08:18;;;;;;;0.57;0.47;;;;;;;18.77;34.28;99330.97;4881939;29;20064;-95
2022/09/20 12:11:05;;;;;;;0.75;0.40;;;;;;;18.85;34.59;99336.78;4887696;29;20487;-91
2022/09/20 12:13:38;;;;;;;0.88;0.40;;;;;;;18.92;34.81;99302.41;4895406;29;20063;-94
2022/09/20 12:16:40;;;;;;;3.35;0.70;;;;;;;18.96;34.28;99308.00;4924070;29;20042;-91
2022/09/20 12:19:37;;;;;;;2.80;0.50;;;;;;;19.17;33.65;99338.94;4954364;28;20090;-90
2022/09/20 12:22:02;;;;;;;1.08;0.80;;;;;;;19.11;34.65;99340.25;4986166;28;20129;-91
2022/09/20 12:24:35;;;;;;;0.60;0.50;;;;;;;19.00;33.83;99316.34;4975564;28;20059;-93
2022/09/20 12:27:19;;;;;;;0.30;0.30;;;;;;;19.04;33.31;99339.94;4976568;28;20559;-91
2022/09/20 12:29:47;;;;;;;1.13;0.40;;;;;;;19.03;33.78;99313.78;4995623;28;20033;-91
2022/09/20 12:32:38;;;;;;;1.33;0.82;;;;;;;19.01;34.75;99324.22;4992670;28;20065;-93
2022/09/20 12:35:35;;;;;;;1.50;0.80;;;;;;;19.21;34.85;99339.06;4979631;28;20087;-93
2022/09/20 12:38:19;;;;;;;2.38;0.60;;;;;;;19.11;34.35;99318.41;4993866;28;20032;-94
2022/09/20 12:41:08;;;;;;;1.42;0.90;;;;;;;19.20;34.70;99332.03;4979797;28;20031;-93
2022/09/20 12:44:34;;;;;;;0.95;0.47;;;;;;;19.02;33.58;99319.56;4980639;28;20026;-95
2022/09/20 12:47:09;;;;;;;1.00;0.60;;;;;;;18.99;34.17;99310.09;4946869;29;20034;-94
2022/09/20 12:52:57;;;;;;;1.80;0.80;;;;;;;19.14;34.25;99328.66;4985369;28;20073;-94
2022/09/20 12:55:37;;;;;;;2.50;0.45;;;;;;;19.32;34.67;99323.13;4995489;28;20077;-93
2022/09/20 12:58:17;;;;;;;0.77;0.50;;;;;;;19.37;32.29;99315.56;4994670;28;20049;-96
2022/09/20 13:00:58;;;;;;;1.00;0.50;;;;;;;19.36;32.97;99296.75;4995692;28;20038;-94
2022/09/20 13:03:33;;;;;;;1.50;0.97;;;;;;;19.57;33.23;99307.78;5001379;28;20030;-95
2022/09/20 13:06:10;;;;;;;0.88;0.65;;;;;;;19.91;32.58;99327.81;4983905;28;20476;-96
2022/09/20 13:09:12;;;;;;;0.63;0.40;;;;;;;19.71;32.98;99313.78;4991422;28;20477;-94
2022/09/20 13:11:46;;;;;;;1.45;0.60;;;;;;;19.67;33.07;99333.88;4987389;28;20409;-91
2022/09/20 13:14:25;;;;;;;0.75;0.43;;;;;;;19.38;32.44;99310.88;4946608;28;20039;-94
2022/09/20 13:17:28;;;;;;;0.60;0.30;;;;;;;19.20;33.12;99320.31;4953979;28;20058;-93
2022/09/20 13:19:59;;;;;;;0.70;0.55;;;;;;;19.35;33.27;99323.28;4969983;28;20126;-93
2022/09/20 13:22:36;;;;;;;1.65;0.60;;;;;;;19.15;33.52;99310.34;4970565;28;20414;-95
2022/09/20 13:25:12;;;;;;;1.55;0.82;;;;;;;19.24;33.67;99316.59;4959639;29;20501;-94
2022/09/20 13:28:00;;;;;;;2.10;0.47;;;;;;;19.36;32.53;99335.00;4960056;28;20031;-93
2022/09/20 13:30:31;;;;;;;0.90;0.60;;;;;;;19.06;33.42;99313.13;4955854;28;20455;-95
2022/09/20 13:33:13;;;;;;;13.68;8.52;;;;;;;18.95;32.67;99299.03;4979260;28;20046;-94
2022/09/20 13:35:49;;;;;;;4.68;1.90;;;;;;;18.93;34.33;99303.22;4964113;28;20031;-96
2022/09/20 13:38:23;;;;;;;1.33;0.77;;;;;;;18.97;33.10;99298.72;4947373;28;20461;-93
2022/09/20 13:40:48;;;;;;;1.00;0.60;;;;;;;19.31;32.71;99333.25;4961228;28;20042;-92
2022/09/20 13:43:27;;;;;;;0.93;0.73;;;;;;;19.51;33.32;99337.19;4946579;28;20042;-91
2022/09/20 13:45:57;;;;;;;0.88;0.60;;;;;;;19.51;32.48;99326.25;4987833;28;20116;-91